Time;durP1;ratioP1;P1;durP2;ratioP2;P2;SDS_P1;SDS_P2;PMS_P1;PMS_P2;Temp;Humidity;BMP_temperature;BMP_pressure;BME280_temperature;BME280_humidity;BME280_pressure;Samples;Min_cycle;Max_cycle;Signal;HPM_P1;HPM_P2
2022/04/03 00:01:28;;;;;;;7.47;6.32;;;;;;;1.14;57.64;102244.88;5090245;28;20047;-71
2022/04/03 00:03:56;;;;;;;6.78;6.07;;;;;;;1.19;58.24;102246.63;5101945;28;20019;-70
2022/04/03 00:06:22;;;;;;;9.63;6.50;;;;;;;1.06;58.23;102241.41;5093956;28;20080;-70
2022/04/03 00:08:48;;;;;;;9.30;6.97;;;;;;;1.09;58.09;102237.94;5096956;28;20502;-71
2022/04/03 00:11:13;;;;;;;8.18;6.90;;;;;;;1.03;57.86;102244.03;5107608;28;20016;-70
2022/04/03 00:13:39;;;;;;;12.82;7.25;;;;;;;0.90;58.61;102237.91;5076975;28;20039;-71
2022/04/03 00:16:06;;;;;;;8.80;6.78;;;;;;;0.98;58.27;102237.94;5089843;28;20030;-70
2022/04/03 00:18:32;;;;;;;7.47;6.75;;;;;;;0.99;58.42;102244.91;5091731;28;20089;-71
2022/04/03 00:21:02;;;;;;;8.60;7.00;;;;;;;0.89;58.12;102228.34;5089298;28;20135;-71
2022/04/03 00:23:30;;;;;;;10.50;7.07;;;;;;;0.89;58.80;102241.44;5089522;28;20081;-70
2022/04/03 00:25:56;;;;;;;8.48;7.13;;;;;;;0.96;59.07;102237.03;5090688;28;20989;-71
2022/04/03 00:28:22;;;;;;;9.63;6.53;;;;;;;0.87;58.71;102232.69;5099763;28;20144;-70
2022/04/03 00:30:48;;;;;;;8.33;6.53;;;;;;;0.81;59.04;102237.94;5094764;28;20491;-71
2022/04/03 00:33:13;;;;;;;7.47;6.60;;;;;;;0.86;58.93;102243.19;5092641;28;20030;-70
2022/04/03 00:35:40;;;;;;;10.83;7.03;;;;;;;0.65;58.98;102231.84;5096257;28;20024;-71
2022/04/03 00:38:07;;;;;;;7.33;6.53;;;;;;;0.70;59.48;102238.81;5095565;28;20066;-71
2022/04/03 00:40:35;;;;;;;10.52;7.13;;;;;;;0.66;59.29;102238.81;5108714;28;20035;-71
2022/04/03 00:43:03;;;;;;;10.88;6.88;;;;;;;0.59;59.95;102233.56;5094394;28;20015;-71
2022/04/03 00:45:28;;;;;;;8.05;6.78;;;;;;;0.62;59.23;102233.59;5097059;28;20437;-71
2022/04/03 00:47:56;;;;;;;8.15;6.60;;;;;;;0.62;59.58;102230.97;5105830;28;20060;-70
2022/04/03 00:50:24;;;;;;;7.47;6.78;;;;;;;0.59;59.29;102234.44;5095782;28;20028;-70
2022/04/03 00:52:49;;;;;;;7.10;6.40;;;;;;;0.51;59.21;102217.00;5097848;28;20024;-70
2022/04/03 00:55:15;;;;;;;8.57;6.07;;;;;;;0.55;59.32;102235.28;5078071;28;20028;-70
2022/04/03 00:57:43;;;;;;;7.53;6.60;;;;;;;0.55;59.54;102239.66;5097175;28;20036;-71
2022/04/03 01:00:12;;;;;;;8.70;6.97;;;;;;;0.51;60.30;102240.53;5088313;28;20032;-70
2022/04/03 01:02:41;;;;;;;9.53;6.70;;;;;;;0.49;59.62;102240.53;5089546;28;20047;-71
2022/04/03 01:05:10;;;;;;;7.10;6.47;;;;;;;0.45;60.38;102230.94;5088868;28;20084;-71
2022/04/03 01:07:35;;;;;;;7.65;6.88;;;;;;;0.39;60.81;102241.41;5089067;28;20123;-71
2022/04/03 01:10:01;;;;;;;8.18;7.35;;;;;;;0.37;60.19;102237.91;5097993;28;20164;-70
2022/04/03 01:12:27;;;;;;;7.47;6.80;;;;;;;0.30;60.95;102236.16;5091770;28;20020;-71
2022/04/03 01:14:53;;;;;;;9.47;7.00;;;;;;;0.34;60.70;102233.53;5090188;28;20035;-71
2022/04/03 01:17:18;;;;;;;8.23;6.90;;;;;;;0.26;60.42;102221.31;5089136;28;20511;-71
2022/04/03 01:19:44;;;;;;;7.60;6.80;;;;;;;0.33;60.57;102231.81;5095414;28;20058;-70
2022/04/03 01:22:12;;;;;;;8.67;6.93;;;;;;;0.27;60.22;102233.53;5090092;28;20054;-70
2022/04/03 01:24:42;;;;;;;9.63;7.07;;;;;;;0.28;60.00;102243.13;5102826;28;20055;-71
2022/04/03 01:27:10;;;;;;;9.68;7.07;;;;;;;0.25;61.21;102238.75;5090481;28;20024;-70
2022/04/03 01:29:36;;;;;;;9.93;7.40;;;;;;;0.27;60.80;102236.16;5096487;28;20106;-70
2022/04/03 01:32:02;;;;;;;7.50;6.80;;;;;;;0.23;60.50;102230.88;5110575;28;20119;-70
2022/04/03 01:34:28;;;;;;;7.97;7.17;;;;;;;0.22;61.13;102233.50;5066222;28;20028;-70
2022/04/03 01:36:56;;;;;;;8.47;6.73;;;;;;;0.18;61.45;102230.03;5088664;28;20050;-70
2022/04/03 01:39:21;;;;;;;12.20;7.32;;;;;;;0.17;61.75;102238.72;5096852;28;20063;-70
2022/04/03 01:41:47;;;;;;;7.70;6.97;;;;;;;0.18;61.81;102234.41;5095121;28;20059;-70
2022/04/03 01:44:14;;;;;;;10.00;6.83;;;;;;;0.06;61.36;102227.38;5099272;28;20028;-70
2022/04/03 01:46:40;;;;;;;7.73;6.63;;;;;;;0.09;61.94;102232.63;5094277;28;20032;-71
2022/04/03 01:49:07;;;;;;;7.37;6.60;;;;;;;-0.05;61.26;102219.50;5094253;28;20032;-70
2022/04/03 01:51:33;;;;;;;8.27;6.63;;;;;;;0.01;62.32;102223.00;5094022;28;20040;-71
2022/04/03 01:53:59;;;;;;;8.33;6.67;;;;;;;-0.03;61.36;102225.63;5097429;28;20051;-71
2022/04/03 01:56:25;;;;;;;7.70;6.97;;;;;;;-0.02;61.73;102227.34;5093855;28;20024;-70
2022/04/03 01:58:51;;;;;;;7.93;7.13;;;;;;;-0.06;62.35;102227.31;5093466;28;20387;-71
2022/04/03 02:01:17;;;;;;;8.10;7.13;;;;;;;-0.04;62.38;102229.09;5096740;28;20081;-71
2022/04/03 02:03:43;;;;;;;7.43;6.73;;;;;;;-0.05;61.67;102227.34;5093208;28;20046;-71
2022/04/03 02:06:11;;;;;;;8.77;7.20;;;;;;;-0.11;62.81;102226.47;5095596;28;20035;-70
2022/04/03 02:08:36;;;;;;;10.20;6.73;;;;;;;-0.05;62.13;102223.88;5103515;28;20031;-71
2022/04/03 02:11:02;;;;;;;7.83;7.13;;;;;;;-0.10;62.54;102215.13;5098178;28;20039;-70
2022/04/03 02:13:28;;;;;;;7.80;7.00;;;;;;;-0.06;62.10;102216.88;5093861;28;20024;-72
2022/04/03 02:15:55;;;;;;;9.83;7.13;;;;;;;-0.07;62.30;102216.00;5075641;28;20036;-71
2022/04/03 02:18:21;;;;;;;7.80;7.00;;;;;;;-0.10;62.38;102223.84;5094742;28;20024;-70
2022/04/03 02:20:47;;;;;;;7.90;6.87;;;;;;;-0.14;63.08;102216.00;5093360;28;20032;-71
2022/04/03 02:23:13;;;;;;;7.67;6.83;;;;;;;-0.26;63.68;102219.44;5105500;28;20080;-70
2022/04/03 02:25:41;;;;;;;8.77;7.13;;;;;;;-0.29;63.74;102220.28;5091814;28;20031;-71
2022/04/03 02:28:10;;;;;;;8.80;6.97;;;;;;;-0.36;63.85;102210.66;5093765;28;20027;-70
2022/04/03 02:30:38;;;;;;;11.97;7.40;;;;;;;-0.34;63.66;102221.13;5092256;28;20024;-70
2022/04/03 02:33:05;;;;;;;8.53;7.40;;;;;;;-0.40;63.66;102224.59;5092047;28;20032;-71
2022/04/03 02:35:31;;;;;;;9.53;7.00;;;;;;;-0.37;64.03;102206.31;5099601;28;20028;-70
2022/04/03 02:37:56;;;;;;;8.40;6.63;;;;;;;-0.37;63.13;102222.00;5104337;28;20501;-70
2022/04/03 02:40:24;;;;;;;8.43;7.07;;;;;;;-0.38;63.16;102214.13;5105520;28;20031;-71
2022/04/03 02:42:52;;;;;;;7.20;6.50;;;;;;;-0.41;63.16;102209.78;5104729;28;20526;-70
2022/04/03 02:45:18;;;;;;;8.23;6.90;;;;;;;-0.40;63.23;102215.88;5093795;28;20360;-71
2022/04/03 02:47:52;;;;;;;10.67;7.20;;;;;;;-0.44;64.17;102217.63;5093235;28;20036;-71
2022/04/03 02:50:20;;;;;;;9.23;7.10;;;;;;;-0.50;63.52;102212.34;5103014;28;20051;-70
2022/04/03 02:52:51;;;;;;;10.20;7.00;;;;;;;-0.61;64.28;102207.09;5105566;28;20036;-70
2022/04/03 02:55:19;;;;;;;7.90;7.10;;;;;;;-0.61;63.91;102214.91;5100697;28;20047;-70
2022/04/03 02:57:47;;;;;;;7.87;7.07;;;;;;;-0.64;64.24;102214.91;5091698;28;20028;-70
2022/04/03 03:00:14;;;;;;;8.73;7.10;;;;;;;-0.60;64.10;102221.00;5095636;28;20023;-70
2022/04/03 03:02:41;;;;;;;8.93;7.20;;;;;;;-0.55;64.31;102225.41;5107472;28;20031;-70
2022/04/03 03:05:07;;;;;;;9.13;7.17;;;;;;;-0.67;64.90;102221.88;5092940;28;20024;-70
2022/04/03 03:07:37;;;;;;;8.17;6.97;;;;;;;-0.69;64.99;102222.69;5092540;28;20024;-71
2022/04/03 03:10:04;;;;;;;7.70;6.70;;;;;;;-0.73;64.43;102226.19;5097981;28;20028;-71
2022/04/03 03:12:30;;;;;;;8.17;6.90;;;;;;;-0.70;64.81;102226.19;5092014;28;20393;-71
2022/04/03 03:14:58;;;;;;;9.30;7.20;;;;;;;-0.74;65.13;102226.16;5090620;28;20115;-70
2022/04/03 03:17:24;;;;;;;9.93;7.10;;;;;;;-0.78;64.56;102222.66;5092739;28;20480;-70
2022/04/03 03:19:49;;;;;;;8.40;7.33;;;;;;;-0.78;64.97;102219.19;5097652;28;20039;-70
2022/04/03 03:22:18;;;;;;;8.67;7.40;;;;;;;-0.89;65.35;102218.22;5094494;28;20059;-70
2022/04/03 03:24:44;;;;;;;7.73;6.93;;;;;;;-0.89;65.61;102228.69;5090828;28;20040;-71
2022/04/03 03:27:09;;;;;;;8.33;7.10;;;;;;;-0.88;65.55;102226.09;5095348;28;20032;-71
2022/04/03 03:29:34;;;;;;;8.83;7.93;;;;;;;-0.90;65.31;102227.81;5093734;28;20114;-70
2022/04/03 03:32:01;;;;;;;13.40;7.33;;;;;;;-0.90;65.09;102226.94;5090632;28;20069;-70
2022/04/03 03:34:27;;;;;;;8.70;7.10;;;;;;;-0.90;65.13;102238.25;5091051;28;20479;-70
2022/04/03 03:36:53;;;;;;;11.40;7.43;;;;;;;-0.97;65.61;102231.22;5091760;28;20059;-71
2022/04/03 03:39:19;;;;;;;10.43;7.70;;;;;;;-0.95;65.87;102238.22;5092259;28;20471;-71
2022/04/03 03:41:44;;;;;;;10.73;7.63;;;;;;;-0.96;65.55;102235.59;5098542;28;20044;-70
2022/04/03 03:44:10;;;;;;;7.80;7.00;;;;;;;-0.98;65.38;102232.97;5092943;28;20032;-70
2022/04/03 03:46:39;;;;;;;8.57;7.47;;;;;;;-1.00;65.98;102231.19;5098250;28;20056;-70
2022/04/03 03:49:09;;;;;;;8.80;7.20;;;;;;;-1.15;66.66;102222.44;5090080;28;21556;-71
2022/04/03 03:51:36;;;;;;;8.87;7.97;;;;;;;-1.17;66.16;102221.53;5097545;28;20027;-71
2022/04/03 03:54:02;;;;;;;11.33;7.50;;;;;;;-1.07;66.05;102235.50;5096283;28;20045;-70
2022/04/03 03:56:28;;;;;;;8.13;7.43;;;;;;;-1.05;65.96;102238.16;5090681;28;20035;-71
2022/04/03 03:58:53;;;;;;;7.60;6.80;;;;;;;-1.23;66.64;102216.25;5091309;28;20403;-70
2022/04/03 04:01:20;;;;;;;8.30;7.33;;;;;;;-1.12;66.62;102225.91;5098146;28;20548;-71
2022/04/03 04:03:46;;;;;;;8.63;7.30;;;;;;;-1.13;66.39;102235.47;5099338;28;20024;-70
2022/04/03 04:06:14;;;;;;;8.83;6.60;;;;;;;-1.11;65.36;102238.97;5097792;28;20541;-71
2022/04/03 04:08:40;;;;;;;9.23;7.20;;;;;;;-1.10;65.83;102237.22;5091321;28;20036;-71
2022/04/03 04:11:06;;;;;;;10.07;7.63;;;;;;;-1.12;65.89;102232.00;5091455;28;20165;-71
2022/04/03 04:13:32;;;;;;;8.53;7.70;;;;;;;-1.13;66.34;102232.84;5095053;28;20586;-71
2022/04/03 04:15:58;;;;;;;9.10;7.90;;;;;;;-1.17;66.53;102239.81;5089954;28;20447;-71
2022/04/03 04:18:24;;;;;;;8.07;7.03;;;;;;;-1.26;66.49;102231.91;5089974;28;20161;-71
2022/04/03 04:20:52;;;;;;;9.33;7.57;;;;;;;-1.23;66.52;102229.31;5097895;28;20031;-71
2022/04/03 04:23:20;;;;;;;12.27;8.07;;;;;;;-1.23;66.76;102238.88;5091337;28;20032;-70
2022/04/03 04:25:46;;;;;;;9.20;7.93;;;;;;;-1.24;67.15;102237.13;5103299;28;20062;-70
2022/04/03 04:28:12;;;;;;;8.60;7.03;;;;;;;-1.28;66.47;102235.34;5080455;28;20490;-70
2022/04/03 04:30:38;;;;;;;8.30;7.53;;;;;;;-1.28;66.91;102238.84;5089980;28;20514;-71
2022/04/03 04:33:06;;;;;;;8.27;7.43;;;;;;;-1.28;66.99;102238.84;5090738;28;20111;-71
2022/04/03 04:35:33;;;;;;;8.40;7.40;;;;;;;-1.29;66.68;102244.94;5090088;28;20028;-71
2022/04/03 04:37:59;;;;;;;10.57;7.73;;;;;;;-1.35;66.78;102249.19;5098274;28;20191;-70
2022/04/03 04:40:25;;;;;;;10.50;7.80;;;;;;;-1.44;67.19;102247.38;5090246;28;20530;-71
2022/04/03 04:42:51;;;;;;;8.53;7.63;;;;;;;-1.45;67.19;102258.69;5095479;28;20106;-71
2022/04/03 04:45:17;;;;;;;13.47;8.30;;;;;;;-1.53;67.89;102258.63;5091075;28;20070;-71
2022/04/03 04:47:43;;;;;;;9.33;8.27;;;;;;;-1.56;67.37;102253.34;5073012;28;20078;-71
2022/04/03 04:50:11;;;;;;;8.63;7.83;;;;;;;-1.60;67.64;102255.06;5089722;28;20032;-71
2022/04/03 04:52:37;;;;;;;10.10;8.50;;;;;;;-1.67;67.89;102250.66;5089819;28;20024;-70
2022/04/03 04:55:05;;;;;;;9.30;8.23;;;;;;;-1.70;67.60;102244.53;5098941;28;20039;-71
2022/04/03 04:57:32;;;;;;;10.53;7.93;;;;;;;-1.71;67.67;102240.16;5089511;28;20467;-71
2022/04/03 04:59:59;;;;;;;10.20;8.03;;;;;;;-1.57;67.73;102259.44;5093355;28;20107;-70
2022/04/03 05:02:25;;;;;;;11.50;8.20;;;;;;;-1.57;68.19;102258.56;5090643;28;20107;-70
2022/04/03 05:04:51;;;;;;;12.13;8.33;;;;;;;-1.58;68.15;102260.31;5096732;28;20189;-71
2022/04/03 05:07:16;;;;;;;11.47;7.73;;;;;;;-1.57;67.91;102269.88;5094787;28;20376;-71
2022/04/03 05:09:43;;;;;;;8.97;8.03;;;;;;;-1.61;67.83;102278.53;5089275;28;20024;-70
2022/04/03 05:12:12;;;;;;;9.90;7.80;;;;;;;-1.71;67.76;102254.06;5090168;28;20027;-71
2022/04/03 05:14:38;;;;;;;10.13;8.10;;;;;;;-1.64;68.35;102270.69;5089261;28;20396;-71
2022/04/03 05:17:04;;;;;;;9.37;8.47;;;;;;;-1.60;67.80;102272.47;5098586;28;20031;-71
2022/04/03 05:19:30;;;;;;;9.17;8.37;;;;;;;-1.70;68.23;102270.63;5089140;28;20036;-70
2022/04/03 05:21:55;;;;;;;10.80;8.17;;;;;;;-1.74;68.21;102280.13;5090065;28;20031;-71
2022/04/03 05:24:21;;;;;;;8.73;7.83;;;;;;;-1.74;68.44;102281.88;5089285;28;20032;-70
2022/04/03 05:26:47;;;;;;;10.70;8.27;;;;;;;-1.74;68.60;102282.72;5092213;28;20078;-71
2022/04/03 05:29:12;;;;;;;10.83;8.43;;;;;;;-1.71;68.28;102284.50;5089880;28;20032;-71
2022/04/03 05:31:38;;;;;;;10.13;8.13;;;;;;;-1.63;68.92;102278.50;5088925;28;20036;-71
2022/04/03 05:34:04;;;;;;;12.70;8.80;;;;;;;-1.65;68.71;102276.75;5090353;28;20044;-70
2022/04/03 05:36:29;;;;;;;8.87;8.03;;;;;;;-1.61;68.65;102284.63;5089297;28;20028;-70
2022/04/03 05:38:55;;;;;;;9.40;8.40;;;;;;;-1.55;68.43;102286.44;5090207;28;20024;-71
2022/04/03 05:41:20;;;;;;;10.83;8.23;;;;;;;-1.52;68.65;102291.69;5090671;28;20031;-70
2022/04/03 05:43:46;;;;;;;9.93;8.70;;;;;;;-1.50;68.79;102289.97;5090390;28;20038;-70
2022/04/03 05:46:12;;;;;;;8.93;8.10;;;;;;;-1.44;68.46;102287.41;5088622;28;20391;-71
2022/04/03 05:48:38;;;;;;;10.40;9.40;;;;;;;-1.40;68.37;102299.63;5095858;28;20043;-70
2022/04/03 05:51:03;;;;;;;10.47;8.03;;;;;;;-1.32;68.20;102301.41;5096283;28;20032;-70
2022/04/03 05:53:30;;;;;;;13.53;8.43;;;;;;;-1.27;68.59;102292.75;5093578;28;20028;-70
2022/04/03 05:55:58;;;;;;;11.43;8.53;;;;;;;-1.24;69.00;102297.16;5072083;28;20130;-70
2022/04/03 05:58:24;;;;;;;9.03;8.13;;;;;;;-1.17;68.45;102298.97;5093877;28;20514;-70
2022/04/03 06:00:49;;;;;;;9.37;8.23;;;;;;;-1.18;68.58;102287.66;5091307;28;20051;-71
2022/04/03 06:03:17;;;;;;;10.20;8.53;;;;;;;-1.12;68.94;102301.59;5096471;28;20119;-70
2022/04/03 06:05:43;;;;;;;9.30;8.23;;;;;;;-1.11;69.37;102298.16;5089280;28;20032;-71
2022/04/03 06:08:09;;;;;;;9.17;8.27;;;;;;;-1.09;69.32;102294.66;5089013;28;20086;-70
2022/04/03 06:10:37;;;;;;;9.07;8.20;;;;;;;-1.05;68.58;102293.84;5088952;28;20040;-71
2022/04/03 06:13:08;;;;;;;9.87;8.47;;;;;;;-0.98;69.16;102298.25;5092416;28;20153;-70
2022/04/03 06:15:38;;;;;;;9.47;8.30;;;;;;;-0.89;69.22;102302.66;5070926;28;20043;-70
2022/04/03 06:18:11;;;;;;;11.18;8.13;;;;;;;-0.85;69.48;102309.69;5089923;28;20036;-70
2022/04/03 06:20:37;;;;;;;14.00;9.20;;;;;;;-0.77;69.44;102302.75;5100915;28;20550;-71
2022/04/03 06:23:09;;;;;;;9.93;8.70;;;;;;;-0.68;68.87;102304.56;5107288;28;20015;-70
2022/04/03 06:25:36;;;;;;;10.10;8.57;;;;;;;-0.67;68.79;102308.94;5096242;28;20503;-70
2022/04/03 06:28:04;;;;;;;9.30;8.40;;;;;;;-0.60;68.99;102302.00;5099965;28;20446;-70
2022/04/03 06:30:29;;;;;;;10.07;8.97;;;;;;;-0.59;69.74;102307.25;5099212;28;20552;-71
2022/04/03 06:32:59;;;;;;;14.10;8.87;;;;;;;-0.57;69.58;102302.91;5074482;28;20028;-71
2022/04/03 06:35:30;;;;;;;10.13;8.70;;;;;;;-0.48;69.38;102309.91;5092400;28;20043;-71
2022/04/03 06:37:55;;;;;;;;;;;;;;;-0.31;68.06;102307.41;5095988;28;20102;-70
2022/04/03 06:40:23;;;;;;;10.03;8.33;;;;;;;-0.35;68.95;102301.31;5095338;28;19995;-71
2022/04/03 06:42:49;;;;;;;11.90;9.17;;;;;;;-0.30;69.38;102299.56;5096073;28;20423;-70
2022/04/03 06:45:15;;;;;;;10.97;8.67;;;;;;;-0.32;69.13;102295.22;5097375;28;20120;-70
2022/04/03 06:47:42;;;;;;;9.97;8.67;;;;;;;-0.18;69.94;102298.75;5093950;28;20024;-70
2022/04/03 06:50:08;;;;;;;9.53;8.47;;;;;;;-0.05;69.52;102291.84;5099037;28;20028;-70
2022/04/03 06:52:34;;;;;;;9.63;8.20;;;;;;;0.01;69.29;102285.78;5100431;28;20020;-71
2022/04/03 06:55:00;;;;;;;10.00;9.00;;;;;;;0.25;69.41;102304.16;5092404;28;20047;-70
2022/04/03 06:57:26;;;;;;;9.63;8.53;;;;;;;0.32;69.57;102287.59;5093268;28;20032;-70
2022/04/03 06:59:51;;;;;;;10.87;8.60;;;;;;;0.51;69.90;102299.00;5103895;28;20463;-71
2022/04/03 07:02:17;;;;;;;12.10;9.23;;;;;;;0.54;68.88;102290.28;5104888;28;20027;-71
2022/04/03 07:04:45;;;;;;;13.20;9.30;;;;;;;0.66;69.12;102295.53;5093728;28;20102;-71
2022/04/03 07:07:21;;;;;;;10.87;9.43;;;;;;;0.81;69.62;102300.78;5092402;28;20482;-71
2022/04/03 07:09:46;;;;;;;10.20;9.10;;;;;;;1.02;68.93;102306.91;5093855;28;20024;-71
2022/04/03 07:12:14;;;;;;;11.07;9.90;;;;;;;1.16;68.34;102306.91;5091235;28;20031;-71
2022/04/03 07:14:39;;;;;;;10.97;9.67;;;;;;;1.32;68.72;102313.88;5092007;28;20038;-71
2022/04/03 07:17:05;;;;;;;12.15;9.95;;;;;;;1.46;68.40;102303.38;5092321;28;20390;-71
2022/04/03 07:19:31;;;;;;;13.30;10.40;;;;;;;1.68;68.06;102302.44;5097330;28;20038;-71
2022/04/03 07:21:57;;;;;;;14.95;11.07;;;;;;;1.82;68.87;102299.75;5099668;28;20111;-71
2022/04/03 07:24:23;;;;;;;11.73;9.57;;;;;;;1.90;68.38;102297.13;5090937;28;20032;-70
2022/04/03 07:26:49;;;;;;;10.88;9.77;;;;;;;2.13;67.96;102304.91;5098266;28;20035;-70
2022/04/03 07:29:15;;;;;;;12.43;10.15;;;;;;;2.22;67.98;102295.22;5077985;28;20039;-70
2022/04/03 07:31:43;;;;;;;14.50;10.27;;;;;;;2.40;68.18;102309.16;5090403;28;20061;-71
2022/04/03 07:34:09;;;;;;;11.82;10.63;;;;;;;2.59;67.64;102307.25;5091715;28;20028;-71
2022/04/03 07:36:35;;;;;;;14.43;10.65;;;;;;;2.72;67.20;102315.06;5094957;28;20035;-71
2022/04/03 07:39:00;;;;;;;12.27;10.68;;;;;;;2.78;66.77;102314.16;5103095;28;20385;-70
2022/04/03 07:41:28;;;;;;;13.82;10.27;;;;;;;2.83;66.32;102322.00;5095578;28;20494;-71
2022/04/03 07:43:54;;;;;;;13.65;10.90;;;;;;;2.95;66.83;102317.53;5090422;28;20429;-70
2022/04/03 07:46:20;;;;;;;14.23;10.20;;;;;;;3.07;66.59;102319.19;5094056;28;20028;-71
2022/04/03 07:48:46;;;;;;;12.38;10.77;;;;;;;3.21;66.85;102312.94;5090436;28;20089;-71
2022/04/03 07:51:12;;;;;;;16.95;9.90;;;;;;;3.36;66.65;102316.31;5093827;28;20060;-70
2022/04/03 07:53:38;;;;;;;11.98;9.52;;;;;;;3.54;65.58;102307.34;5091462;28;20047;-71
2022/04/03 07:56:06;;;;;;;10.90;9.07;;;;;;;3.76;65.91;102312.38;5090945;28;20048;-71
2022/04/03 07:58:37;;;;;;;11.50;9.00;;;;;;;3.89;64.42;102303.47;5091844;28;20434;-71
2022/04/03 08:01:03;;;;;;;10.77;7.65;;;;;;;4.07;62.89;102313.78;5102945;28;20027;-71
2022/04/03 08:03:29;;;;;;;11.38;8.10;;;;;;;4.20;62.38;102318.88;5098131;28;20383;-71
2022/04/03 08:05:55;;;;;;;11.05;8.00;;;;;;;4.26;61.65;102317.03;5090624;28;20036;-71
2022/04/03 08:08:20;;;;;;;10.35;8.25;;;;;;;4.45;61.71;102317.66;5097350;28;20020;-71
2022/04/03 08:10:46;;;;;;;8.18;7.07;;;;;;;4.49;59.86;102308.81;5091326;28;20134;-70
2022/04/03 08:13:12;;;;;;;12.15;8.05;;;;;;;4.64;60.52;102313.00;5089968;28;20024;-70
2022/04/03 08:15:37;;;;;;;7.00;6.30;;;;;;;4.81;57.88;102318.03;5090330;28;20092;-70
2022/04/03 08:18:03;;;;;;;6.72;6.00;;;;;;;4.88;57.23;102308.25;5082620;28;20084;-70
2022/04/03 08:20:29;;;;;;;6.68;5.40;;;;;;;5.06;56.33;102318.50;5105670;28;20043;-70
2022/04/03 08:22:55;;;;;;;7.18;5.32;;;;;;;5.14;55.58;102318.38;5090511;28;20028;-70
2022/04/03 08:25:20;;;;;;;5.75;5.25;;;;;;;5.33;54.85;102321.59;5092815;28;20382;-70
2022/04/03 08:27:48;;;;;;;6.15;5.50;;;;;;;5.43;55.47;102324.00;5089606;28;20120;-70
2022/04/03 08:30:17;;;;;;;6.05;4.95;;;;;;;5.71;55.44;102320.88;5091591;28;20024;-70
2022/04/03 08:32:45;;;;;;;5.60;4.75;;;;;;;5.83;53.80;102327.69;5091256;28;20106;-70
2022/04/03 08:35:12;;;;;;;8.80;5.05;;;;;;;6.05;54.37;102329.03;5091175;28;20024;-70
2022/04/03 08:37:38;;;;;;;5.60;4.55;;;;;;;6.07;53.18;102334.28;5092575;28;20019;-71
2022/04/03 08:40:04;;;;;;;8.07;4.95;;;;;;;6.13;51.48;102329.75;5099999;28;20022;-71
2022/04/03 08:42:30;;;;;;;5.93;4.70;;;;;;;6.20;51.65;102332.25;5090935;28;20044;-70
2022/04/03 08:44:56;;;;;;;4.60;4.20;;;;;;;6.30;51.52;102329.41;5090146;28;20478;-70
2022/04/03 08:47:24;;;;;;;5.38;4.20;;;;;;;6.34;50.87;102335.47;5090507;28;20022;-70
2022/04/03 08:49:50;;;;;;;5.00;4.35;;;;;;;6.49;51.91;102329.00;5091355;28;21653;-70
2022/04/03 08:52:18;;;;;;;4.78;4.38;;;;;;;6.66;50.83;102334.75;5094304;28;20085;-70
2022/04/03 08:54:44;;;;;;;5.57;4.78;;;;;;;6.75;50.70;102336.34;5106466;28;20067;-70
2022/04/03 08:57:10;;;;;;;4.93;4.47;;;;;;;6.76;50.38;102336.28;5098408;28;20028;-70
2022/04/03 08:59:37;;;;;;;5.03;4.53;;;;;;;6.87;50.82;102343.97;5070970;28;20028;-70
2022/04/03 09:02:03;;;;;;;5.68;4.10;;;;;;;6.94;49.59;102336.75;5089289;28;20490;-70
2022/04/03 09:04:31;;;;;;;5.32;4.82;;;;;;;7.06;50.74;102323.25;5088548;28;20119;-70
2022/04/03 09:06:58;;;;;;;7.20;4.88;;;;;;;7.18;50.27;102324.72;5096776;28;20032;-69
2022/04/03 09:09:25;;;;;;;8.38;4.78;;;;;;;7.41;50.50;102329.41;5092969;28;20036;-69
2022/04/03 09:12:10;;;;;;;4.65;4.25;;;;;;;7.65;50.26;102325.28;5092256;28;20032;-69
2022/04/03 09:14:54;;;;;;;4.40;4.10;;;;;;;7.79;49.81;102330.16;5106927;28;20028;-69
2022/04/03 09:17:42;;;;;;;5.85;4.20;;;;;;;7.86;47.02;102327.31;5090551;28;20032;-69
2022/04/03 09:20:13;;;;;;;5.72;4.22;;;;;;;7.79;48.10;102324.88;5088335;28;20386;-70
2022/04/03 09:22:44;;;;;;;4.50;4.10;;;;;;;8.13;47.68;102323.00;5089122;28;20027;-69
2022/04/03 09:25:15;;;;;;;6.40;4.32;;;;;;;8.41;46.55;102314.25;5099295;28;20030;-69
2022/04/03 09:27:54;;;;;;;4.82;3.78;;;;;;;8.61;45.95;102308.34;5103441;28;20044;-68
2022/04/03 09:30:29;;;;;;;3.70;3.40;;;;;;;8.40;45.75;102301.94;5099637;28;20038;-68
2022/04/03 09:32:57;;;;;;;4.63;3.70;;;;;;;8.36;45.42;102309.09;5096340;28;20051;-70
2022/04/03 09:35:31;;;;;;;5.13;4.13;;;;;;;8.56;46.41;102311.16;5098209;28;20479;-70
2022/04/03 09:38:13;;;;;;;5.22;4.28;;;;;;;8.62;46.19;102299.50;5089406;28;20028;-69
2022/04/03 09:40:50;;;;;;;5.00;3.92;;;;;;;8.86;45.98;102308.44;5097338;28;20027;-68
2022/04/03 09:43:18;;;;;;;5.43;4.18;;;;;;;8.84;43.90;102303.19;5103575;28;20024;-68
2022/04/03 09:45:48;;;;;;;5.32;3.95;;;;;;;8.86;44.65;102305.81;5090532;28;20055;-69
2022/04/03 09:48:29;;;;;;;9.55;3.90;;;;;;;8.91;44.91;102302.97;5101269;28;20031;-68
2022/04/03 09:50:56;;;;;;;5.75;3.95;;;;;;;8.55;44.02;102311.19;5098025;28;20036;-70
2022/04/03 09:53:23;;;;;;;2.95;2.75;;;;;;;8.52;43.56;102306.00;5095571;28;20055;-69
2022/04/03 09:55:49;;;;;;;3.55;3.25;;;;;;;8.27;44.61;102292.59;5089707;28;20044;-70
2022/04/03 09:58:16;;;;;;;3.83;3.40;;;;;;;8.34;44.34;102304.75;5090300;28;20107;-69
2022/04/03 10:00:42;;;;;;;4.10;3.13;;;;;;;8.68;44.10;102285.16;5100372;28;20201;-71
2022/04/03 10:03:10;;;;;;;3.75;3.40;;;;;;;8.99;43.10;102285.03;5093235;28;20522;-72
2022/04/03 10:05:36;;;;;;;4.45;3.05;;;;;;;9.26;42.75;102275.25;5094230;28;20024;-72
2022/04/03 10:08:05;;;;;;;4.28;2.70;;;;;;;9.55;42.16;102282.19;5111592;28;20035;-73
2022/04/03 10:10:33;;;;;;;3.42;2.70;;;;;;;9.77;40.64;102282.31;5093289;28;20581;-72
2022/04/03 10:13:01;;;;;;;2.53;2.33;;;;;;;9.63;39.56;102277.47;5091831;28;20032;-71
2022/04/03 10:15:28;;;;;;;2.80;2.60;;;;;;;9.11;40.57;102281.94;5093926;28;20055;-72
2022/04/03 10:17:55;;;;;;;4.40;2.83;;;;;;;8.86;41.64;102274.81;5096240;28;20038;-75
2022/04/03 10:20:25;;;;;;;3.05;2.80;;;;;;;8.59;41.16;102254.50;5098876;28;20035;-73
2022/04/03 10:22:54;;;;;;;;;;;;;;;8.90;41.49;102269.41;5099310;28;20015;-72
2022/04/03 10:25:27;;;;;;;5.13;2.90;;;;;;;8.61;40.85;102269.44;5104743;28;19982;-71
2022/04/03 10:27:56;;;;;;;4.45;2.83;;;;;;;8.41;40.74;102261.25;5095105;28;21634;-71
2022/04/03 10:30:34;;;;;;;6.55;2.85;;;;;;;8.37;42.39;102262.22;5103192;28;20057;-71
2022/04/03 10:33:03;;;;;;;3.85;3.28;;;;;;;8.35;42.51;102261.41;5099509;28;20031;-71
2022/04/03 10:35:29;;;;;;;4.70;2.30;;;;;;;8.43;42.21;102263.84;5094568;28;20024;-72
2022/04/03 10:38:04;;;;;;;3.38;2.85;;;;;;;9.00;42.47;102254.91;5091720;28;20668;-73
2022/04/03 10:40:34;;;;;;;4.13;2.65;;;;;;;9.58;41.68;102265.28;5096255;28;20026;-71
2022/04/03 10:43:03;;;;;;;3.15;2.08;;;;;;;9.83;39.60;102262.63;5092647;28;20023;-71
2022/04/03 10:45:46;;;;;;;3.30;2.22;;;;;;;10.15;38.11;102269.38;5091309;28;20109;-70
2022/04/03 10:48:20;;;;;;;4.30;2.20;;;;;;;10.06;38.54;102257.31;5096658;28;20035;-70
2022/04/03 10:51:01;;;;;;;3.08;2.78;;;;;;;9.68;38.69;102256.09;5099630;27;20514;-69
2022/04/03 10:53:36;;;;;;;5.45;2.80;;;;;;;9.42;39.65;102257.00;5100162;28;20016;-69
2022/04/03 10:56:22;;;;;;;3.53;3.20;;;;;;;9.37;40.55;102257.16;5099327;28;20067;-70
2022/04/03 10:58:49;;;;;;;3.40;3.10;;;;;;;9.17;40.51;102251.69;5092473;28;20043;-69
2022/04/03 11:01:42;;;;;;;4.15;2.85;;;;;;;9.13;41.18;102253.59;5104615;28;20026;-70
2022/04/03 11:04:07;;;;;;;2.80;2.60;;;;;;;8.99;42.05;102246.09;5111202;28;20039;-70
2022/04/03 11:06:36;;;;;;;3.63;3.13;;;;;;;8.85;42.34;102257.19;5093190;28;20012;-69
2022/04/03 11:09:05;;;;;;;4.25;2.97;;;;;;;8.58;42.32;102245.66;5089478;28;20495;-69
2022/04/03 11:11:50;;;;;;;4.00;2.70;;;;;;;8.58;43.80;102242.16;5093043;28;20428;-69
2022/04/03 11:14:52;;;;;;;3.20;2.75;;;;;;;8.69;42.53;102247.97;5089967;28;20020;-69
2022/04/03 11:17:19;;;;;;;2.92;2.72;;;;;;;8.76;42.47;102243.34;5089175;28;20043;-70
2022/04/03 11:19:46;;;;;;;4.40;3.13;;;;;;;9.03;42.37;102244.19;5092914;28;20059;-69
2022/04/03 11:22:17;;;;;;;6.85;3.13;;;;;;;9.19;41.75;102234.78;5090412;28;20144;-70
2022/04/03 11:24:44;;;;;;;3.17;2.88;;;;;;;9.57;41.01;102231.69;5087079;28;20051;-69
2022/04/03 11:27:13;;;;;;;2.85;2.63;;;;;;;9.68;40.14;102234.81;5090176;28;20055;-70
2022/04/03 11:29:38;;;;;;;3.13;2.75;;;;;;;9.51;40.28;102235.44;5093176;28;20036;-70